Time;durP1;ratioP1;P1;durP2;ratioP2;P2;SDS_P1;SDS_P2;PMS_P1;PMS_P2;Temp;Humidity;BMP_temperature;BMP_pressure;BME280_temperature;BME280_humidity;BME280_pressure;Samples;Min_cycle;Max_cycle;Signal;HPM_P1;HPM_P2
2021/11/05 00:02:14;;;;;;;3.83;2.00;;;7.70;99.90;;;;;;5052387;28;20421;-70
2021/11/05 00:04:39;;;;;;;1.47;1.37;;;7.70;99.90;;;;;;5052789;28;20524;-70
2021/11/05 00:07:05;;;;;;;2.90;1.93;;;7.70;99.90;;;;;;5051441;28;20202;-70
2021/11/05 00:09:31;;;;;;;0.70;0.60;;;7.70;99.90;;;;;;5052355;28;20552;-70
2021/11/05 00:11:56;;;;;;;1.63;1.53;;;7.70;99.90;;;;;;5051585;28;20425;-69
2021/11/05 00:14:22;;;;;;;1.00;0.83;;;7.70;99.90;;;;;;5045667;28;20667;-69
2021/11/05 00:16:48;;;;;;;0.70;0.60;;;7.70;99.90;;;;;;5051456;28;20206;-69
2021/11/05 00:19:14;;;;;;;1.20;1.07;;;7.80;99.90;;;;;;5052419;28;20179;-69
2021/11/05 00:21:39;;;;;;;1.53;1.10;;;7.80;99.90;;;;;;5051526;28;20487;-70
2021/11/05 00:24:05;;;;;;;0.73;0.73;;;7.80;99.90;;;;;;5051963;28;20189;-70
2021/11/05 00:26:34;;;;;;;1.77;1.07;;;7.90;99.90;;;;;;5052965;28;20225;-70
2021/11/05 00:29:00;;;;;;;1.47;1.33;;;7.90;99.90;;;;;;5052224;28;20483;-70
2021/11/05 00:31:26;;;;;;;1.17;0.73;;;7.90;99.90;;;;;;5045701;28;20965;-70
2021/11/05 00:33:52;;;;;;;1.33;1.23;;;7.90;99.90;;;;;;5050596;28;20182;-70
2021/11/05 00:36:17;;;;;;;1.83;1.40;;;7.90;99.90;;;;;;5054487;28;20484;-70
2021/11/05 00:38:44;;;;;;;4.10;1.93;;;8.00;99.90;;;;;;5047977;28;20201;-70
2021/11/05 00:41:11;;;;;;;1.23;1.10;;;8.00;99.90;;;;;;5051683;28;20185;-70
2021/11/05 00:43:37;;;;;;;1.57;1.37;;;8.00;99.90;;;;;;5051292;28;20512;-70
2021/11/05 00:46:02;;;;;;;1.90;1.80;;;8.00;99.90;;;;;;5050603;28;20760;-69
2021/11/05 00:48:28;;;;;;;2.07;1.03;;;8.00;99.90;;;;;;5037656;28;20471;-70
2021/11/05 00:50:54;;;;;;;1.10;0.70;;;8.00;99.90;;;;;;5051744;28;20181;-70
2021/11/05 00:53:20;;;;;;;1.77;1.67;;;8.10;99.90;;;;;;5066976;28;20174;-70
2021/11/05 00:55:45;;;;;;;2.40;1.17;;;8.10;99.90;;;;;;5051072;28;20216;-70
2021/11/05 00:58:11;;;;;;;0.70;0.60;;;8.10;99.90;;;;;;5051610;28;20710;-70
2021/11/05 01:00:37;;;;;;;1.97;1.00;;;8.20;99.90;;;;;;5051606;28;20179;-70
2021/11/05 01:03:02;;;;;;;2.73;1.43;;;8.30;99.90;;;;;;5049773;28;20174;-70
2021/11/05 01:05:28;;;;;;;2.10;1.73;;;8.40;99.90;;;;;;5051367;28;20181;-70
2021/11/05 01:07:54;;;;;;;1.43;1.33;;;8.40;99.90;;;;;;5050947;28;20206;-70
2021/11/05 01:10:19;;;;;;;2.10;1.90;;;8.50;99.90;;;;;;5051477;28;20179;-70
2021/11/05 01:12:45;;;;;;;4.00;1.70;;;8.50;99.90;;;;;;5051424;28;20444;-70
2021/11/05 01:15:13;;;;;;;1.40;1.30;;;8.60;99.90;;;;;;5050990;28;20197;-70
2021/11/05 01:17:40;;;;;;;3.87;1.57;;;8.70;99.90;;;;;;5051051;28;20205;-70
2021/11/05 01:20:08;;;;;;;5.23;1.37;;;8.70;99.90;;;;;;5049981;28;20453;-70
2021/11/05 01:22:34;;;;;;;3.60;3.33;;;8.70;99.90;;;;;;5046076;28;20535;-70
2021/11/05 01:24:59;;;;;;;3.13;2.93;;;8.70;99.90;;;;;;5051000;28;20513;-70
2021/11/05 01:27:25;;;;;;;2.97;1.83;;;8.70;99.90;;;;;;5050888;28;20199;-70
2021/11/05 01:29:56;;;;;;;1.47;1.37;;;8.80;99.90;;;;;;5051007;28;20194;-70
2021/11/05 01:32:22;;;;;;;2.70;1.03;;;8.80;99.90;;;;;;5050729;28;20641;-70
2021/11/05 01:34:48;;;;;;;11.93;1.87;;;8.80;99.90;;;;;;5051145;28;20508;-70
2021/11/05 01:37:13;;;;;;;0.87;0.87;;;8.80;99.90;;;;;;5047037;28;20231;-70
2021/11/05 01:39:39;;;;;;;5.70;1.80;;;8.80;99.90;;;;;;5046122;28;20190;-70
2021/11/05 01:42:04;;;;;;;1.50;1.40;;;8.80;99.90;;;;;;5060414;28;20565;-70
2021/11/05 01:44:30;;;;;;;4.50;2.07;;;8.80;99.90;;;;;;5045556;28;20628;-70
2021/11/05 01:46:56;;;;;;;1.90;1.70;;;8.80;99.90;;;;;;5050677;28;20265;-71
2021/11/05 01:49:21;;;;;;;2.63;2.10;;;8.80;99.90;;;;;;5051183;28;20175;-70
2021/11/05 01:51:48;;;;;;;2.70;1.80;;;8.90;99.90;;;;;;5051237;28;20175;-70
2021/11/05 01:54:14;;;;;;;3.27;2.97;;;8.80;99.90;;;;;;5048924;28;20198;-70
2021/11/05 01:56:42;;;;;;;1.80;1.70;;;8.80;99.90;;;;;;5061331;28;20444;-70
2021/11/05 01:59:22;;;;;;;12.93;1.43;;;8.80;99.90;;;;;;5051465;28;20456;-70
2021/11/05 02:01:48;;;;;;;1.07;0.97;;;8.80;99.90;;;;;;5049892;28;20926;-70
2021/11/05 02:04:14;;;;;;;2.97;2.67;;;8.90;99.90;;;;;;5050956;28;20424;-70
2021/11/05 02:06:43;;;;;;;2.63;2.53;;;8.90;99.90;;;;;;5050715;28;20528;-70
2021/11/05 02:09:12;;;;;;;2.20;2.10;;;8.90;99.90;;;;;;5051242;28;20290;-70
2021/11/05 02:11:38;;;;;;;0.80;0.70;;;8.90;99.90;;;;;;5035879;28;20436;-70
2021/11/05 02:14:05;;;;;;;1.13;1.10;;;8.90;99.90;;;;;;5050088;28;20414;-70
2021/11/05 02:16:31;;;;;;;1.53;1.30;;;8.90;99.90;;;;;;5048604;28;20178;-70
2021/11/05 02:18:57;;;;;;;1.83;0.97;;;8.90;99.90;;;;;;5054404;28;20915;-70
2021/11/05 02:21:36;;;;;;;1.73;1.60;;;8.90;99.90;;;;;;5054383;28;20475;-70
2021/11/05 02:24:02;;;;;;;2.87;2.77;;;9.00;99.90;;;;;;5054277;28;20420;-70
2021/11/05 02:26:28;;;;;;;8.33;1.23;;;8.90;99.90;;;;;;5049936;28;20852;-71
2021/11/05 02:28:53;;;;;;;1.47;1.40;;;8.90;99.90;;;;;;5047137;28;20519;-71
2021/11/05 02:31:19;;;;;;;2.63;2.50;;;8.90;99.90;;;;;;5048350;28;20671;-70
2021/11/05 02:33:44;;;;;;;1.50;1.37;;;9.00;99.90;;;;;;5051815;28;20536;-70
2021/11/05 02:36:10;;;;;;;2.57;1.80;;;8.90;99.90;;;;;;5050512;28;20637;-70
2021/11/05 02:38:35;;;;;;;4.17;1.27;;;8.80;99.90;;;;;;5052053;28;20199;-70
2021/11/05 02:41:01;;;;;;;4.07;3.07;;;8.90;99.90;;;;;;5050827;28;20209;-70
2021/11/05 02:43:27;;;;;;;1.10;1.00;;;8.80;99.90;;;;;;5052040;28;20175;-70
2021/11/05 02:45:53;;;;;;;1.23;1.17;;;8.90;99.90;;;;;;5051524;28;20513;-70
2021/11/05 02:48:19;;;;;;;3.03;2.20;;;8.90;99.90;;;;;;5053233;28;20205;-70
2021/11/05 02:50:45;;;;;;;3.77;1.77;;;8.90;99.90;;;;;;5053922;28;20450;-70
2021/11/05 02:53:11;;;;;;;4.27;2.73;;;8.80;99.90;;;;;;5051990;28;20922;-70
2021/11/05 02:55:37;;;;;;;2.20;1.90;;;8.80;99.90;;;;;;5053413;28;20167;-70
2021/11/05 02:58:03;;;;;;;4.30;1.93;;;8.80;99.90;;;;;;5051962;28;20465;-70
2021/11/05 03:00:30;;;;;;;2.53;1.43;;;8.90;99.90;;;;;;5053153;28;20639;-70
2021/11/05 03:02:55;;;;;;;4.30;2.63;;;8.90;99.90;;;;;;5053173;28;20519;-71
2021/11/05 03:05:21;;;;;;;1.37;1.27;;;8.90;99.90;;;;;;5053313;28;20174;-71
2021/11/05 03:07:47;;;;;;;1.53;1.40;;;8.90;99.90;;;;;;5051917;28;20465;-71
2021/11/05 03:10:15;;;;;;;3.33;1.93;;;8.90;99.90;;;;;;5044264;28;20170;-71
2021/11/05 03:12:43;;;;;;;2.70;2.50;;;8.90;99.90;;;;;;5052902;28;20189;-71
2021/11/05 03:15:09;;;;;;;1.47;1.37;;;8.90;99.90;;;;;;5052978;28;20465;-70
2021/11/05 03:17:36;;;;;;;2.60;1.87;;;8.90;99.90;;;;;;5052135;28;20488;-70
2021/11/05 03:20:03;;;;;;;1.30;1.20;;;8.90;99.90;;;;;;5053256;28;20174;-71
2021/11/05 03:22:28;;;;;;;2.20;2.10;;;8.90;99.90;;;;;;5052452;28;20444;-71
2021/11/05 03:24:54;;;;;;;2.13;2.03;;;9.00;99.90;;;;;;5051147;28;20798;-72
2021/11/05 03:27:19;;;;;;;1.67;1.40;;;9.00;99.90;;;;;;5053232;28;20745;-70
2021/11/05 03:29:45;;;;;;;1.00;0.90;;;8.90;99.90;;;;;;5053277;28;20185;-70
2021/11/05 03:32:11;;;;;;;3.47;1.70;;;8.90;99.90;;;;;;5053056;28;20190;-70
2021/11/05 03:34:37;;;;;;;2.93;2.53;;;9.00;99.90;;;;;;5052789;28;20183;-70
2021/11/05 03:37:03;;;;;;;4.23;1.43;;;8.90;99.90;;;;;;5051002;28;20199;-70
2021/11/05 03:39:30;;;;;;;3.30;2.10;;;8.90;99.90;;;;;;5051041;28;20175;-70
2021/11/05 03:41:55;;;;;;;0.90;0.90;;;9.00;99.90;;;;;;5052266;28;20524;-70
2021/11/05 03:44:21;;;;;;;0.70;0.60;;;8.90;99.90;;;;;;5052818;28;20588;-70
2021/11/05 03:46:46;;;;;;;2.40;1.30;;;8.90;99.90;;;;;;5052394;28;20414;-70
2021/11/05 03:49:12;;;;;;;2.07;1.87;;;8.80;99.90;;;;;;5050423;28;20213;-69
2021/11/05 03:51:38;;;;;;;1.77;1.67;;;8.90;99.90;;;;;;5047691;28;20320;-69
2021/11/05 03:54:04;;;;;;;0.90;0.90;;;8.90;99.90;;;;;;5051749;28;20175;-70
2021/11/05 03:56:30;;;;;;;2.23;1.07;;;8.80;99.90;;;;;;5051104;28;20214;-70
2021/11/05 03:58:56;;;;;;;4.70;3.00;;;8.90;99.90;;;;;;5051515;28;20468;-70
2021/11/05 04:01:21;;;;;;;1.20;1.10;;;8.80;99.90;;;;;;5052672;28;20178;-71
2021/11/05 04:03:50;;;;;;;1.97;1.17;;;8.80;99.90;;;;;;5051920;28;20191;-70
2021/11/05 04:06:17;;;;;;;2.50;1.70;;;8.80;99.90;;;;;;5043111;28;20190;-70
2021/11/05 04:08:43;;;;;;;1.53;1.43;;;8.80;99.90;;;;;;5052326;28;20970;-70
2021/11/05 04:11:09;;;;;;;0.90;0.70;;;8.80;99.90;;;;;;5052034;28;20432;-70
2021/11/05 04:13:34;;;;;;;0.70;0.50;;;8.80;99.90;;;;;;5052302;28;20644;-70
2021/11/05 04:16:00;;;;;;;3.13;2.43;;;8.80;99.90;;;;;;5051778;28;20265;-71
2021/11/05 04:18:25;;;;;;;1.27;1.17;;;8.90;99.90;;;;;;5050847;28;20198;-70
2021/11/05 04:20:51;;;;;;;2.30;2.20;;;8.90;99.90;;;;;;5063400;28;20183;-70
2021/11/05 04:23:17;;;;;;;1.50;1.40;;;8.90;99.90;;;;;;5051037;28;20652;-70
2021/11/05 04:25:44;;;;;;;0.70;0.60;;;9.00;99.90;;;;;;5052075;28;20179;-70
2021/11/05 04:28:09;;;;;;;29.33;2.53;;;8.90;99.90;;;;;;5050768;28;20505;-70
2021/11/05 04:30:35;;;;;;;1.07;0.97;;;9.00;99.90;;;;;;5050538;28;20469;-70
2021/11/05 04:33:01;;;;;;;0.70;0.60;;;9.00;99.90;;;;;;5050916;28;20246;-70
2021/11/05 04:35:28;;;;;;;0.90;0.90;;;9.00;99.90;;;;;;5051843;28;20413;-70
2021/11/05 04:37:53;;;;;;;1.63;1.53;;;9.00;99.90;;;;;;5049956;28;20199;-70
2021/11/05 04:40:19;;;;;;;3.90;2.20;;;9.00;99.90;;;;;;5051105;28;20436;-70
2021/11/05 04:42:44;;;;;;;0.93;0.93;;;9.00;99.90;;;;;;5051256;28;20189;-70
2021/11/05 04:45:10;;;;;;;2.30;0.83;;;9.00;99.90;;;;;;5050498;28;20186;-70
2021/11/05 04:47:36;;;;;;;4.07;2.03;;;9.00;99.90;;;;;;5051558;28;20206;-70
2021/11/05 04:50:02;;;;;;;0.70;0.50;;;9.00;99.90;;;;;;5051802;28;20537;-70
2021/11/05 04:52:28;;;;;;;0.70;0.60;;;9.00;99.90;;;;;;5050506;28;20421;-70
2021/11/05 04:54:53;;;;;;;1.03;0.93;;;8.90;99.90;;;;;;5051452;28;20523;-71
2021/11/05 04:57:20;;;;;;;1.60;1.50;;;9.00;99.90;;;;;;5050989;28;20206;-70
2021/11/05 04:59:46;;;;;;;2.23;1.27;;;9.00;99.90;;;;;;5049739;28;20250;-70
2021/11/05 05:02:11;;;;;;;0.70;0.50;;;9.00;99.90;;;;;;5049439;28;20515;-70
2021/11/05 05:04:37;;;;;;;1.00;1.00;;;8.90;99.90;;;;;;5050649;28;20262;-70
2021/11/05 05:07:03;;;;;;;2.90;2.30;;;8.90;99.90;;;;;;5050009;28;20203;-71
2021/11/05 05:09:28;;;;;;;0.87;0.70;;;8.90;99.90;;;;;;5049850;28;20186;-70
2021/11/05 05:11:54;;;;;;;0.70;0.50;;;8.90;99.90;;;;;;5051103;28;20831;-71
2021/11/05 05:14:19;;;;;;;1.40;1.30;;;8.90;99.90;;;;;;5051643;28;20186;-70
2021/11/05 05:16:45;;;;;;;1.07;1.07;;;8.90;99.90;;;;;;5051757;28;20608;-70
2021/11/05 05:19:11;;;;;;;0.83;0.83;;;8.90;99.90;;;;;;5067136;28;20187;-70
2021/11/05 05:21:37;;;;;;;1.67;1.57;;;8.90;99.90;;;;;;5051653;28;20191;-70
2021/11/05 05:24:02;;;;;;;1.33;1.23;;;8.90;99.90;;;;;;5048819;28;20736;-70
2021/11/05 05:26:29;;;;;;;3.23;1.07;;;8.90;99.90;;;;;;5048371;28;20462;-70
2021/11/05 05:28:54;;;;;;;0.80;0.60;;;8.80;99.90;;;;;;5049380;28;20214;-71
2021/11/05 05:31:20;;;;;;;1.23;1.13;;;8.80;99.90;;;;;;5051504;28;20563;-71
2021/11/05 05:33:45;;;;;;;0.70;0.60;;;8.80;99.90;;;;;;5050275;28;20209;-71
2021/11/05 05:36:11;;;;;;;0.70;0.50;;;8.90;99.90;;;;;;5050265;28;20178;-71
2021/11/05 05:38:37;;;;;;;15.90;2.07;;;8.80;99.90;;;;;;5049134;28;20252;-71
2021/11/05 05:41:03;;;;;;;3.63;1.17;;;8.90;99.90;;;;;;5046927;28;20194;-70
2021/11/05 05:43:29;;;;;;;4.50;1.37;;;8.80;99.90;;;;;;5053689;28;20421;-70
2021/11/05 05:45:55;;;;;;;0.70;0.60;;;8.80;99.90;;;;;;5054719;28;20432;-70
2021/11/05 05:48:21;;;;;;;3.43;1.67;;;8.80;99.90;;;;;;5054219;28;20468;-71
2021/11/05 05:50:47;;;;;;;1.90;1.50;;;8.80;99.90;;;;;;5054935;28;20432;-70
2021/11/05 05:53:13;;;;;;;1.43;1.27;;;8.70;99.90;;;;;;5053944;28;20437;-70
2021/11/05 05:55:39;;;;;;;1.43;1.23;;;8.70;99.90;;;;;;5053562;28;20542;-70
2021/11/05 05:58:06;;;;;;;1.50;1.20;;;8.70;99.90;;;;;;5052654;28;20221;-70
2021/11/05 06:00:34;;;;;;;1.57;0.80;;;8.60;99.90;;;;;;5054590;28;20437;-69
2021/11/05 06:03:00;;;;;;;3.00;2.70;;;8.60;99.90;;;;;;5054061;28;20496;-70
2021/11/05 06:05:26;;;;;;;1.10;0.70;;;8.60;99.90;;;;;;5053591;28;20437;-70
2021/11/05 06:07:51;;;;;;;4.00;1.37;;;8.60;99.90;;;;;;5053991;28;20469;-69
2021/11/05 06:10:17;;;;;;;2.67;2.47;;;8.50;99.90;;;;;;5052847;28;20849;-70
2021/11/05 06:12:43;;;;;;;1.80;0.90;;;8.40;99.90;;;;;;5054659;28;20235;-70
2021/11/05 06:15:09;;;;;;;0.80;0.70;;;8.50;99.90;;;;;;5053701;28;20207;-71
2021/11/05 06:17:35;;;;;;;3.03;1.70;;;8.60;99.90;;;;;;5053802;28;20195;-70
2021/11/05 06:20:03;;;;;;;2.10;1.90;;;8.50;99.90;;;;;;5052950;28;20776;-70
2021/11/05 06:22:28;;;;;;;5.57;2.47;;;8.60;99.90;;;;;;5053290;28;20429;-70
2021/11/05 06:24:56;;;;;;;1.03;0.80;;;8.50;99.90;;;;;;5053538;28;20448;-72
2021/11/05 06:27:22;;;;;;;1.73;1.63;;;8.50;99.90;;;;;;5049429;28;20337;-71
2021/11/05 06:29:48;;;;;;;0.83;0.80;;;8.50;99.90;;;;;;5052412;28;20927;-71
2021/11/05 06:32:13;;;;;;;1.40;0.77;;;8.40;99.90;;;;;;5053318;28;20178;-71
2021/11/05 06:34:39;;;;;;;1.43;1.33;;;8.50;99.90;;;;;;5050781;28;20171;-70
2021/11/05 06:37:05;;;;;;;1.20;1.10;;;8.50;99.90;;;;;;5051750;28;20190;-70
2021/11/05 06:39:30;;;;;;;1.00;1.00;;;8.50;99.90;;;;;;5053517;28;20441;-70
2021/11/05 06:41:57;;;;;;;1.30;1.20;;;8.50;99.90;;;;;;5052063;28;20183;-71
2021/11/05 06:44:23;;;;;;;3.83;1.50;;;8.50;99.90;;;;;;5052340;28;20656;-70
2021/11/05 06:46:49;;;;;;;1.00;0.60;;;8.50;99.90;;;;;;5059975;28;20433;-69
2021/11/05 06:49:14;;;;;;;1.27;1.17;;;8.50;99.90;;;;;;5045726;28;20660;-70
2021/11/05 06:51:40;;;;;;;9.60;2.67;;;8.50;99.90;;;;;;5051456;28;20647;-71
2021/11/05 06:54:05;;;;;;;1.13;0.90;;;8.50;99.90;;;;;;5050266;28;20167;-71
2021/11/05 06:56:31;;;;;;;0.70;0.50;;;8.40;99.90;;;;;;5052858;28;20179;-70
2021/11/05 06:58:58;;;;;;;9.60;1.50;;;8.40;99.90;;;;;;5050379;28;20185;-71
2021/11/05 07:01:24;;;;;;;0.70;0.53;;;8.40;99.90;;;;;;5052442;28;20220;-71
2021/11/05 07:03:50;;;;;;;0.70;0.50;;;8.40;99.90;;;;;;5052372;28;20433;-70
2021/11/05 07:06:16;;;;;;;2.30;2.20;;;8.30;99.90;;;;;;5052471;28;20202;-70
2021/11/05 07:08:41;;;;;;;0.77;0.63;;;8.30;99.90;;;;;;5052112;28;20866;-70
2021/11/05 07:11:07;;;;;;;1.80;0.77;;;8.20;99.90;;;;;;5053131;28;20551;-72
2021/11/05 07:13:32;;;;;;;21.67;1.67;;;8.10;99.90;;;;;;5050632;28;20216;-71
2021/11/05 07:15:58;;;;;;;1.57;1.47;;;8.20;99.90;;;;;;5052500;28;20175;-71
2021/11/05 07:18:24;;;;;;;1.00;1.00;;;8.20;99.90;;;;;;5052124;28;20199;-70
2021/11/05 07:20:51;;;;;;;0.70;0.50;;;8.20;99.90;;;;;;5039778;28;20468;-70
2021/11/05 07:23:17;;;;;;;0.70;0.60;;;8.20;99.90;;;;;;5052778;28;20198;-70
2021/11/05 07:25:43;;;;;;;1.50;1.10;;;8.30;99.90;;;;;;5052031;28;20496;-70
2021/11/05 07:28:09;;;;;;;1.23;1.13;;;8.30;99.90;;;;;;5051034;28;20615;-70
2021/11/05 07:30:36;;;;;;;1.00;0.90;;;8.30;99.90;;;;;;5053208;28;20915;-74
2021/11/05 07:33:02;;;;;;;0.90;0.90;;;8.30;99.90;;;;;;5051909;28;20301;-71
2021/11/05 07:35:28;;;;;;;0.90;0.90;;;8.40;99.90;;;;;;5051383;28;20531;-70
2021/11/05 07:37:53;;;;;;;2.07;1.50;;;8.40;99.90;;;;;;5050089;28;20210;-70
2021/11/05 07:40:20;;;;;;;2.00;1.90;;;8.50;99.90;;;;;;5051826;28;20202;-71
2021/11/05 07:42:46;;;;;;;1.40;1.30;;;8.50;99.90;;;;;;5050490;28;20264;-70
2021/11/05 07:45:14;;;;;;;3.53;2.67;;;8.50;99.90;;;;;;5052118;28;20433;-70
2021/11/05 07:47:40;;;;;;;0.70;0.50;;;8.60;99.90;;;;;;5049163;28;20541;-71
2021/11/05 07:50:08;;;;;;;1.20;1.07;;;8.60;99.90;;;;;;5051537;28;20864;-71
2021/11/05 07:52:34;;;;;;;1.67;1.10;;;8.70;99.90;;;;;;5052185;28;20432;-71
2021/11/05 07:55:00;;;;;;;1.67;1.23;;;8.70;99.90;;;;;;5051700;28;20428;-71
2021/11/05 07:57:26;;;;;;;1.10;1.00;;;8.80;99.90;;;;;;5049746;28;20564;-71
2021/11/05 07:59:54;;;;;;;1.57;1.33;;;8.80;99.90;;;;;;5051237;28;20178;-71
2021/11/05 08:02:20;;;;;;;3.13;2.87;;;8.80;99.90;;;;;;5052027;28;20571;-71
2021/11/05 08:04:45;;;;;;;2.77;2.57;;;8.80;99.90;;;;;;5051145;28;20432;-71
2021/11/05 08:07:11;;;;;;;2.73;2.60;;;8.90;99.90;;;;;;5048686;28;20194;-71
2021/11/05 08:09:36;;;;;;;0.70;0.70;;;9.00;99.90;;;;;;5051676;28;20178;-71
2021/11/05 08:12:02;;;;;;;0.90;0.60;;;9.00;99.90;;;;;;5050993;28;20178;-71
2021/11/05 08:14:28;;;;;;;2.50;0.90;;;9.10;99.90;;;;;;5050579;28;20201;-71
2021/11/05 08:16:53;;;;;;;1.73;1.63;;;9.10;99.90;;;;;;5050489;28;20457;-71
2021/11/05 08:19:19;;;;;;;1.40;0.80;;;9.10;99.90;;;;;;5051676;28;20187;-71
2021/11/05 08:21:44;;;;;;;1.80;1.70;;;9.30;99.90;;;;;;5049112;28;20190;-71
2021/11/05 08:24:10;;;;;;;1.43;1.13;;;9.40;99.90;;;;;;5050627;28;20198;-71
2021/11/05 08:26:36;;;;;;;5.30;4.90;;;9.50;99.90;;;;;;5049914;28;20201;-71
2021/11/05 08:29:03;;;;;;;1.00;0.80;;;9.70;99.90;;;;;;5050777;28;20471;-71
2021/11/05 08:31:29;;;;;;;3.50;2.10;;;9.80;99.90;;;;;;5049268;28;21060;-71
2021/11/05 08:33:55;;;;;;;3.77;3.43;;;9.90;99.90;;;;;;5047713;28;20433;-71
2021/11/05 08:36:24;;;;;;;2.03;1.50;;;10.00;99.90;;;;;;5049930;28;20429;-71
2021/11/05 08:38:51;;;;;;;1.10;1.00;;;10.00;99.90;;;;;;5050410;28;20194;-71
2021/11/05 08:41:17;;;;;;;1.73;1.63;;;10.30;99.90;;;;;;5049381;28;20592;-71
2021/11/05 08:43:46;;;;;;;0.93;0.90;;;10.30;99.90;;;;;;5050398;28;20489;-71
2021/11/05 08:46:16;;;;;;;4.63;1.20;;;10.40;99.90;;;;;;5050816;28;20491;-71
2021/11/05 08:48:44;;;;;;;1.77;1.63;;;10.50;99.90;;;;;;5050303;28;21258;-71
2021/11/05 08:51:11;;;;;;;4.63;2.20;;;10.50;99.90;;;;;;5051538;28;20413;-71
2021/11/05 08:53:38;;;;;;;2.80;1.53;;;10.70;99.90;;;;;;5050539;28;20440;-71
2021/11/05 08:56:04;;;;;;;1.73;1.63;;;10.70;99.90;;;;;;5050278;28;20440;-71
2021/11/05 08:58:30;;;;;;;3.53;1.90;;;10.80;99.90;;;;;;5050232;28;20485;-71
2021/11/05 09:00:56;;;;;;;2.70;0.70;;;10.90;99.90;;;;;;5049332;28;20420;-71
2021/11/05 09:03:21;;;;;;;1.20;1.10;;;11.10;99.90;;;;;;5050898;28;20436;-71
2021/11/05 09:05:47;;;;;;;0.70;0.50;;;11.10;99.90;;;;;;5047842;28;20476;-70
2021/11/05 09:08:13;;;;;;;1.80;1.70;;;11.00;99.90;;;;;;5047572;28;20233;-71
2021/11/05 09:10:39;;;;;;;4.50;1.83;;;11.00;99.90;;;;;;5049663;28;20432;-71
2021/11/05 09:13:05;;;;;;;1.37;1.27;;;11.20;99.90;;;;;;5050935;28;20429;-71
2021/11/05 09:15:31;;;;;;;0.97;0.60;;;11.50;99.90;;;;;;5050534;28;20517;-71
2021/11/05 09:17:59;;;;;;;7.60;1.63;;;11.70;99.90;;;;;;5053319;28;20198;-71
2021/11/05 09:20:24;;;;;;;1.80;1.03;;;11.70;99.90;;;;;;5055667;28;20512;-71
2021/11/05 09:22:51;;;;;;;2.60;1.43;;;11.80;99.90;;;;;;5054093;28;21001;-71
2021/11/05 09:25:17;;;;;;;1.67;1.57;;;11.90;99.90;;;;;;5054638;28;20182;-71
2021/11/05 09:27:46;;;;;;;2.70;1.60;;;12.10;99.90;;;;;;5051880;28;20460;-71
2021/11/05 09:30:14;;;;;;;1.83;1.13;;;12.40;99.90;;;;;;5052350;28;20977;-71
2021/11/05 09:32:40;;;;;;;0.97;0.90;;;12.60;99.90;;;;;;5049949;28;20444;-71
2021/11/05 09:35:07;;;;;;;1.10;1.00;;;12.60;99.90;;;;;;5046315;28;20494;-71
2021/11/05 09:37:33;;;;;;;1.23;1.13;;;12.50;99.90;;;;;;5049294;28;20448;-71
2021/11/05 09:39:59;;;;;;;2.53;2.20;;;12.50;99.90;;;;;;5051979;28;20425;-71
2021/11/05 09:42:25;;;;;;;2.03;1.40;;;12.50;99.90;;;;;;5052035;28;20435;-71
2021/11/05 09:44:50;;;;;;;4.63;1.30;;;12.30;99.90;;;;;;5054306;28;20185;-71
2021/11/05 09:47:16;;;;;;;2.70;1.07;;;12.20;99.90;;;;;;5053438;28;20221;-71
2021/11/05 09:49:42;;;;;;;3.40;2.93;;;12.20;99.90;;;;;;5051723;28;20175;-71
2021/11/05 09:52:08;;;;;;;5.30;1.70;;;12.20;99.90;;;;;;5052719;28;20221;-72
2021/11/05 09:54:38;;;;;;;2.63;1.80;;;12.10;99.90;;;;;;5051572;28;20587;-71
2021/11/05 09:57:04;;;;;;;3.93;1.43;;;12.00;99.90;;;;;;5051479;28;20249;-71
2021/11/05 09:59:30;;;;;;;2.40;2.30;;;12.00;99.90;;;;;;5053163;28;20457;-71
2021/11/05 10:01:56;;;;;;;2.57;0.93;;;12.00;99.90;;;;;;5052555;28;20425;-71
2021/11/05 10:04:22;;;;;;;1.87;1.37;;;12.00;99.90;;;;;;5068203;28;20436;-71
2021/11/05 10:06:59;;;;;;;1.30;0.97;;;12.00;99.90;;;;;;5054614;28;20421;-71
2021/11/05 10:09:26;;;;;;;3.13;2.30;;;12.10;99.90;;;;;;5039551;28;20558;-69
2021/11/05 10:11:51;;;;;;;1.47;1.33;;;12.10;99.90;;;;;;5054248;28;20845;-71
2021/11/05 10:14:20;;;;;;;2.73;2.20;;;12.40;99.90;;;;;;5054087;28;20417;-71
2021/11/05 10:17:00;;;;;;;0.90;0.80;;;12.50;99.90;;;;;;5054182;28;20186;-71
2021/11/05 10:19:49;;;;;;;2.33;2.03;;;12.60;99.90;;;;;;5043917;28;20428;-70
2021/11/05 10:22:35;;;;;;;1.07;0.97;;;12.70;99.90;;;;;;5053186;28;20447;-70
2021/11/05 10:25:21;;;;;;;1.77;1.00;;;12.60;99.90;;;;;;5051570;28;20447;-70
2021/11/05 10:27:56;;;;;;;1.40;1.30;;;12.60;99.90;;;;;;5050560;28;20840;-70
2021/11/05 10:30:22;;;;;;;1.40;1.20;;;12.60;99.90;;;;;;5044273;28;20834;-69
2021/11/05 10:33:01;;;;;;;1.00;0.90;;;12.60;99.90;;;;;;5052889;28;20449;-70
2021/11/05 10:35:27;;;;;;;1.00;0.60;;;12.40;99.90;;;;;;5042558;28;20174;-69
2021/11/05 10:37:55;;;;;;;1.47;1.37;;;12.30;99.90;;;;;;5052254;28;20484;-70
2021/11/05 10:40:22;;;;;;;5.57;5.20;;;12.20;99.90;;;;;;5049807;28;20429;-70
2021/11/05 10:42:48;;;;;;;1.87;1.77;;;12.20;99.90;;;;;;5052130;28;20439;-70
2021/11/05 10:45:18;;;;;;;1.50;1.40;;;12.10;99.90;;;;;;5053644;28;20412;-69
2021/11/05 10:47:52;;;;;;;2.60;1.03;;;12.20;99.90;;;;;;5051746;28;20199;-69
2021/11/05 10:50:33;;;;;;;1.00;0.80;;;12.10;99.90;;;;;;5053001;28;20482;-69
2021/11/05 10:53:04;;;;;;;1.87;0.80;;;12.20;99.90;;;;;;5053658;28;20417;-69
2021/11/05 10:55:43;;;;;;;4.43;1.80;;;12.30;99.90;;;;;;5053409;28;20405;-69
2021/11/05 10:58:15;;;;;;;1.10;0.80;;;12.20;99.90;;;;;;5051391;28;20556;-69
2021/11/05 11:00:42;;;;;;;1.07;0.97;;;12.10;99.90;;;;;;5050689;28;20883;-69
2021/11/05 11:03:32;;;;;;;1.50;1.20;;;12.00;99.90;;;;;;5052529;28;20429;-69
2021/11/05 11:06:02;;;;;;;0.70;0.60;;;11.90;99.90;;;;;;5052492;28;20443;-69
2021/11/05 11:08:40;;;;;;;5.10;2.73;;;11.80;99.90;;;;;;5052717;28;20468;-69
2021/11/05 11:11:27;;;;;;;1.53;0.60;;;11.80;99.90;;;;;;5051338;28;20401;-70
2021/11/05 11:14:03;;;;;;;0.70;0.57;;;11.80;99.90;;;;;;5049626;28;20405;-70
2021/11/05 11:16:33;;;;;;;0.70;0.60;;;11.80;99.90;;;;;;5050081;28;20456;-69
2021/11/05 11:19:04;;;;;;;1.03;0.63;;;11.90;99.90;;;;;;5051994;28;20475;-69
2021/11/05 11:21:32;;;;;;;1.40;0.80;;;12.00;99.90;;;;;;5053374;28;20496;-69
2021/11/05 11:24:00;;;;;;;1.93;1.23;;;11.90;99.90;;;;;;5049873;28;20431;-70
2021/11/05 11:26:27;;;;;;;1.57;1.47;;;12.00;99.90;;;;;;5053020;28;20416;-70
2021/11/05 11:28:52;;;;;;;1.57;0.97;;;12.00;99.90;;;;;;5051009;28;20471;-69
2021/11/05 11:31:18;;;;;;;0.87;0.73;;;11.90;99.90;;;;;;5051827;28;20864;-69
2021/11/05 11:33:45;;;;;;;1.23;0.80;;;12.00;99.90;;;;;;5052794;28;20175;-70
2021/11/05 11:36:12;;;;;;;1.43;1.30;;;11.90;99.90;;;;;;5050910;28;20422;-70
2021/11/05 11:38:38;;;;;;;0.70;0.60;;;11.90;99.90;;;;;;5050390;28;20437;-70
2021/11/05 11:41:07;;;;;;;1.27;1.17;;;11.90;99.90;;;;;;5050024;28;20469;-70
2021/11/05 11:43:34;;;;;;;9.47;1.73;;;12.00;99.90;;;;;;5051584;28;20433;-70
2021/11/05 11:46:00;;;;;;;0.70;0.70;;;12.00;99.90;;;;;;5051318;28;21005;-70
2021/11/05 11:48:40;;;;;;;1.17;0.90;;;12.00;99.90;;;;;;5051787;28;20811;-70
2021/11/05 11:51:28;;;;;;;1.20;0.90;;;11.90;99.90;;;;;;5052668;28;20409;-70
2021/11/05 11:54:02;;;;;;;2.30;2.20;;;11.90;99.90;;;;;;5050974;28;20433;-69
2021/11/05 11:56:36;;;;;;;1.13;1.03;;;11.90;99.90;;;;;;5051410;28;20926;-69
2021/11/05 11:59:08;;;;;;;2.03;1.60;;;11.90;99.90;;;;;;5051818;28;20842;-70
2021/11/05 12:01:37;;;;;;;3.00;1.90;;;11.90;99.90;;;;;;5050382;28;20429;-70
2021/11/05 12:04:04;;;;;;;1.23;1.13;;;12.10;99.90;;;;;;5060848;28;20437;-70
2021/11/05 12:06:49;;;;;;;0.80;0.73;;;12.20;99.90;;;;;;5052233;28;20416;-70
2021/11/05 12:09:24;;;;;;;1.23;0.70;;;12.40;99.90;;;;;;5050650;28;21171;-70
2021/11/05 12:11:50;;;;;;;1.00;0.70;;;12.70;99.90;;;;;;5050687;28;20421;-69
2021/11/05 12:14:16;;;;;;;1.07;0.80;;;12.90;99.90;;;;;;5051922;28;20513;-70
2021/11/05 12:17:03;;;;;;;0.80;0.63;;;13.60;99.90;;;;;;5051969;28;20489;-69
2021/11/05 12:19:38;;;;;;;2.87;1.43;;;14.00;99.90;;;;;;5043663;28;20269;-70
2021/11/05 12:22:10;;;;;;;1.30;1.03;;;14.00;99.90;;;;;;5041171;28;20457;-70
2021/11/05 12:24:37;;;;;;;1.53;0.80;;;13.90;99.90;;;;;;5049779;28;20433;-69
2021/11/05 12:27:08;;;;;;;0.70;0.50;;;13.70;99.90;;;;;;5049701;28;20809;-69
2021/11/05 12:29:37;;;;;;;1.07;0.70;;;13.60;99.90;;;;;;5050108;28;20457;-70
2021/11/05 12:32:23;;;;;;;1.00;0.80;;;13.40;99.90;;;;;;5048891;28;20421;-69
2021/11/05 12:35:05;;;;;;;0.90;0.90;;;13.10;99.90;;;;;;5050632;28;20475;-69
2021/11/05 12:37:34;;;;;;;0.70;0.50;;;13.00;99.90;;;;;;5048351;28;20468;-69
2021/11/05 12:40:21;;;;;;;1.60;1.50;;;12.80;99.90;;;;;;5063683;28;20483;-69
2021/11/05 12:42:50;;;;;;;4.00;0.80;;;12.70;99.90;;;;;;5057696;28;20495;-68
2021/11/05 12:45:18;;;;;;;0.87;0.77;;;12.70;99.90;;;;;;5046374;28;20421;-69
2021/11/05 12:47:48;;;;;;;0.70;0.60;;;12.70;99.90;;;;;;5043968;28;20511;-69
2021/11/05 12:50:27;;;;;;;0.80;0.80;;;12.60;99.90;;;;;;5044210;28;22085;-69
2021/11/05 12:52:58;;;;;;;1.10;1.00;;;12.60;99.90;;;;;;5044299;28;20482;-69
2021/11/05 12:55:38;;;;;;;0.70;0.50;;;12.60;99.90;;;;;;5042670;28;20513;-69